createdAt,value
2022-11-20T00:01:24.808Z,24.77
2022-11-20T00:03:55.872Z,22.65
2022-11-20T00:06:23.498Z,18.80
2022-11-20T00:08:51.070Z,21.63
2022-11-20T00:11:20.504Z,25.08
2022-11-20T00:13:49.167Z,21.90
2022-11-20T00:16:18.747Z,26.42
2022-11-20T00:18:46.302Z,24.87
2022-11-20T00:21:24.132Z,21.95
2022-11-20T00:23:54.892Z,22.13
2022-11-20T00:26:23.394Z,25.27
2022-11-20T00:28:55.764Z,21.00
2022-11-20T00:31:22.522Z,20.00
2022-11-20T00:33:49.319Z,19.98
2022-11-20T00:36:19.261Z,20.92
2022-11-20T00:38:46.612Z,20.17
2022-11-20T00:41:16.973Z,20.42
2022-11-20T00:43:43.954Z,19.13
2022-11-20T00:46:14.404Z,30.75
2022-11-20T00:48:41.302Z,34.30
2022-11-20T00:51:08.093Z,29.40
2022-11-20T00:53:34.624Z,24.70
2022-11-20T00:56:04.299Z,23.57
2022-11-20T00:58:38.861Z,28.92
2022-11-20T01:01:14.418Z,29.38
2022-11-20T01:03:49.718Z,22.27
2022-11-20T01:06:22.299Z,21.10
2022-11-20T01:08:51.505Z,21.47
2022-11-20T01:11:21.284Z,19.88
2022-11-20T01:13:49.372Z,21.48
2022-11-20T01:16:34.373Z,20.75
2022-11-20T01:19:02.423Z,21.95
2022-11-20T01:21:32.976Z,20.97
2022-11-20T01:24:00.046Z,21.85
2022-11-20T01:26:29.685Z,23.08
2022-11-20T01:28:57.211Z,19.88
2022-11-20T01:31:26.437Z,22.77
2022-11-20T01:33:55.450Z,21.30
2022-11-20T01:36:24.083Z,19.35
2022-11-20T01:38:58.932Z,22.77
2022-11-20T01:41:45.539Z,20.15
2022-11-20T01:44:16.034Z,21.83
2022-11-20T01:47:06.019Z,20.27
2022-11-20T01:49:43.714Z,23.60
2022-11-20T01:52:20.495Z,21.33
2022-11-20T01:54:52.906Z,21.90
2022-11-20T01:57:20.756Z,21.48
2022-11-20T01:59:55.914Z,21.80
2022-11-20T02:02:22.904Z,21.15
2022-11-20T02:04:52.602Z,21.75
2022-11-20T02:07:20.731Z,23.92
2022-11-20T02:09:47.160Z,20.77
2022-11-20T02:12:33.622Z,20.60
2022-11-20T02:15:00.188Z,20.80
2022-11-20T02:17:26.944Z,22.08
2022-11-20T02:19:53.475Z,21.55
2022-11-20T02:22:48.012Z,20.15
2022-11-20T02:25:15.945Z,19.77
2022-11-20T02:27:42.394Z,20.55
2022-11-20T02:30:11.790Z,22.02
2022-11-20T02:32:39.396Z,22.05
2022-11-20T02:35:18.682Z,21.60
2022-11-20T02:37:46.221Z,23.00
2022-11-20T02:40:12.676Z,24.63
2022-11-20T02:42:39.253Z,22.30
2022-11-20T02:45:06.491Z,23.27
2022-11-20T02:47:33.361Z,20.50
2022-11-20T02:49:59.832Z,22.40
2022-11-20T02:52:26.847Z,21.15
2022-11-20T02:54:53.821Z,22.75
2022-11-20T02:57:20.310Z,20.23
2022-11-20T02:59:46.740Z,19.98
2022-11-20T03:02:13.288Z,19.57
2022-11-20T03:04:39.702Z,21.02
2022-11-20T03:07:06.285Z,22.50
2022-11-20T03:09:32.767Z,19.95
2022-11-20T03:11:59.199Z,20.17
2022-11-20T03:14:25.680Z,25.13
2022-11-20T03:16:52.144Z,19.98
2022-11-20T03:19:18.799Z,20.20
2022-11-20T03:21:45.475Z,19.73
2022-11-20T03:24:11.927Z,21.92
2022-11-20T03:26:40.412Z,19.67
2022-11-20T03:29:07.191Z,20.77
2022-11-20T03:31:36.669Z,20.95
2022-11-20T03:34:04.673Z,20.73
2022-11-20T03:36:31.605Z,22.83
2022-11-20T03:38:58.509Z,20.77
2022-11-20T03:41:28.221Z,19.95
2022-11-20T03:44:00.026Z,19.15
2022-11-20T03:46:27.780Z,19.25
2022-11-20T03:48:54.818Z,21.55
2022-11-20T03:51:29.340Z,18.97
2022-11-20T03:53:58.003Z,19.60
2022-11-20T03:56:27.917Z,20.63
2022-11-20T03:58:54.839Z,21.17
2022-11-20T04:01:24.675Z,21.02
2022-11-20T04:03:53.365Z,19.57
2022-11-20T04:06:25.899Z,20.67
2022-11-20T04:08:53.936Z,19.10
2022-11-20T04:11:23.398Z,20.20
2022-11-20T04:13:52.760Z,20.10
2022-11-20T04:16:19.708Z,21.33
2022-11-20T04:18:46.259Z,19.65
2022-11-20T04:21:13.067Z,21.35
2022-11-20T04:23:39.866Z,19.35
2022-11-20T04:26:11.588Z,21.98
2022-11-20T04:28:38.948Z,19.47
2022-11-20T04:31:11.726Z,20.52
2022-11-20T04:33:38.848Z,32.83
2022-11-20T04:36:16.794Z,21.00
2022-11-20T04:38:43.815Z,21.48
2022-11-20T04:41:18.724Z,20.00
2022-11-20T04:43:53.223Z,20.27
2022-11-20T04:46:21.648Z,22.85
2022-11-20T04:48:48.745Z,19.80
2022-11-20T04:51:15.189Z,20.52
2022-11-20T04:53:42.506Z,21.03
2022-11-20T04:56:11.101Z,18.90
2022-11-20T04:58:38.879Z,21.00
2022-11-20T05:01:14.460Z,19.50
2022-11-20T05:03:42.638Z,20.00
2022-11-20T05:06:11.169Z,22.40
2022-11-20T05:08:37.607Z,20.23
2022-11-20T05:11:12.572Z,22.38
2022-11-20T05:13:39.477Z,20.08
2022-11-20T05:16:11.695Z,20.75
2022-11-20T05:18:39.950Z,20.23
2022-11-20T05:21:07.020Z,18.65
2022-11-20T05:23:35.124Z,22.45
2022-11-20T05:26:02.353Z,19.85
2022-11-20T05:28:30.267Z,22.85
2022-11-20T05:30:57.025Z,20.47
2022-11-20T05:33:24.685Z,19.90
2022-11-20T05:35:51.125Z,21.38
2022-11-20T05:38:17.537Z,20.17
2022-11-20T05:40:44.026Z,21.20
2022-11-20T05:43:10.600Z,21.67
2022-11-20T05:45:37.056Z,19.50
2022-11-20T05:48:03.800Z,21.52
2022-11-20T05:50:30.838Z,19.20
2022-11-20T05:53:00.530Z,21.75
2022-11-20T05:55:27.757Z,19.60
2022-11-20T05:57:55.715Z,20.58
2022-11-20T06:00:22.349Z,22.58
2022-11-20T06:02:48.913Z,21.55
2022-11-20T06:05:15.431Z,20.40
2022-11-20T06:07:41.957Z,21.13
2022-11-20T06:10:08.868Z,20.70
2022-11-20T06:12:35.383Z,22.35
2022-11-20T06:15:01.937Z,21.98
2022-11-20T06:17:28.369Z,21.23
2022-11-20T06:19:54.921Z,18.87
2022-11-20T06:22:21.417Z,19.17
2022-11-20T06:24:48.353Z,22.80
2022-11-20T06:27:14.798Z,27.27
2022-11-20T06:29:41.226Z,23.50
2022-11-20T06:32:07.753Z,21.77
2022-11-20T06:34:34.321Z,21.42
2022-11-20T06:37:00.845Z,21.60
2022-11-20T06:39:27.286Z,23.83
2022-11-20T06:41:58.576Z,20.77
2022-11-20T06:44:25.587Z,21.07
2022-11-20T06:46:51.996Z,22.38
2022-11-20T06:49:18.440Z,23.25
2022-11-20T06:51:44.926Z,19.85
2022-11-20T06:54:11.324Z,22.92
2022-11-20T06:56:37.761Z,19.77
2022-11-20T06:59:08.325Z,21.60
2022-11-20T07:01:35.906Z,21.33
2022-11-20T07:04:02.979Z,23.33
2022-11-20T07:06:29.532Z,25.15
2022-11-20T07:08:55.964Z,24.70
2022-11-20T07:11:22.415Z,25.75
2022-11-20T07:13:48.863Z,25.70
2022-11-20T07:16:16.380Z,28.15
2022-11-20T07:18:47.361Z,31.48
2022-11-20T07:21:16.646Z,35.73
2022-11-20T07:23:43.044Z,37.75
2022-11-20T07:26:11.637Z,30.25
2022-11-20T07:28:38.894Z,30.65
2022-11-20T07:31:07.643Z,26.15
2022-11-20T07:33:34.303Z,24.67
2022-11-20T07:36:01.420Z,24.90
2022-11-20T07:38:28.299Z,28.15
2022-11-20T07:40:56.679Z,25.85
2022-11-20T07:43:23.079Z,23.85
2022-11-20T07:45:49.551Z,24.10
2022-11-20T07:48:16.064Z,25.08
2022-11-20T07:50:42.680Z,25.23
2022-11-20T07:53:09.079Z,27.33
2022-11-20T07:55:35.533Z,25.60
2022-11-20T07:58:02.007Z,25.40
2022-11-20T08:00:28.777Z,26.48
2022-11-20T08:02:55.521Z,22.35
2022-11-20T08:05:21.926Z,23.67
2022-11-20T08:07:48.584Z,24.73
2022-11-20T08:10:17.171Z,22.10
2022-11-20T08:13:07.385Z,21.77
2022-11-20T08:15:34.306Z,21.55
2022-11-20T08:18:29.947Z,21.27
2022-11-20T08:20:55.246Z,23.52
2022-11-20T08:23:23.758Z,22.27
2022-11-20T08:25:51.939Z,21.58
2022-11-20T08:28:21.839Z,25.50
2022-11-20T08:30:50.895Z,21.95
2022-11-20T08:33:18.387Z,24.02
2022-11-20T08:35:45.153Z,23.50
2022-11-20T08:38:11.691Z,26.45
2022-11-20T08:40:38.153Z,24.23
2022-11-20T08:43:05.258Z,23.15
2022-11-20T08:45:34.697Z,21.00
2022-11-20T08:48:03.534Z,23.70
2022-11-20T08:50:32.587Z,23.63
2022-11-20T08:53:06.393Z,23.30
2022-11-20T08:55:33.391Z,23.17
2022-11-20T08:58:04.614Z,24.88
2022-11-20T09:00:31.073Z,24.53
2022-11-20T09:02:58.398Z,23.52
2022-11-20T09:05:24.912Z,24.15
2022-11-20T09:07:51.320Z,23.55
2022-11-20T09:10:25.255Z,24.30
2022-11-20T09:12:56.050Z,23.63
2022-11-20T09:15:23.357Z,20.45
2022-11-20T09:18:01.718Z,25.55
2022-11-20T09:20:29.999Z,28.38
2022-11-20T09:22:57.701Z,23.65
2022-11-20T09:25:24.250Z,24.70
2022-11-20T09:27:56.973Z,21.50
2022-11-20T09:30:23.627Z,22.58
2022-11-20T09:32:50.104Z,25.98
2022-11-20T09:35:17.024Z,26.02
2022-11-20T09:37:43.476Z,26.90
2022-11-20T09:40:21.051Z,25.15
2022-11-20T09:43:13.369Z,24.02
2022-11-20T09:45:57.696Z,22.50
2022-11-20T09:48:55.071Z,22.90
2022-11-20T09:51:42.699Z,22.30
2022-11-20T09:54:20.936Z,24.17
2022-11-20T09:57:01.559Z,23.35
2022-11-20T09:59:41.388Z,24.63
2022-11-20T10:02:19.040Z,23.70
2022-11-20T10:04:52.290Z,26.87
2022-11-20T10:07:57.496Z,31.58
2022-11-20T10:10:44.091Z,30.00
2022-11-20T10:13:16.805Z,29.08
2022-11-20T10:16:31.288Z,25.67
2022-11-20T10:19:22.489Z,24.67
2022-11-20T10:22:18.735Z,27.73
2022-11-20T10:24:54.029Z,25.67
2022-11-20T10:27:35.374Z,23.75
2022-11-20T10:30:08.897Z,24.25
2022-11-20T10:32:57.047Z,23.70
2022-11-20T10:35:29.417Z,26.77
2022-11-20T10:38:00.647Z,43.97
2022-11-20T10:40:39.062Z,36.58
2022-11-20T10:43:14.644Z,25.55
2022-11-20T10:46:04.126Z,22.97
2022-11-20T10:48:32.300Z,22.58
2022-11-20T10:51:31.437Z,24.52
2022-11-20T10:54:25.889Z,26.42
2022-11-20T10:56:54.459Z,25.25
2022-11-20T10:59:34.927Z,27.50
2022-11-20T11:02:03.343Z,26.80
2022-11-20T11:04:34.304Z,29.88
2022-11-20T11:07:11.506Z,30.33
2022-11-20T11:09:43.914Z,28.52
2022-11-20T11:12:11.593Z,29.30
2022-11-20T11:14:53.330Z,27.92
2022-11-20T11:17:48.897Z,27.75
2022-11-20T11:20:21.184Z,33.42
2022-11-20T11:22:50.944Z,30.15
2022-11-20T11:25:37.303Z,32.07
2022-11-20T11:28:06.390Z,30.90
2022-11-20T11:30:44.398Z,29.45
2022-11-20T11:33:13.324Z,32.03
2022-11-20T11:35:51.128Z,31.25
2022-11-20T11:38:23.834Z,30.20
2022-11-20T11:40:50.564Z,27.45
2022-11-20T11:43:45.133Z,29.50
2022-11-20T11:46:33.438Z,29.50
2022-11-20T11:49:01.408Z,32.35
2022-11-20T11:51:46.371Z,31.43
2022-11-20T11:54:26.423Z,29.88
2022-11-20T11:56:53.831Z,26.83
2022-11-20T11:59:43.005Z,31.45
2022-11-20T12:02:25.186Z,33.53
2022-11-20T12:05:14.691Z,34.90
2022-11-20T12:07:48.320Z,33.67
2022-11-20T12:10:22.729Z,32.45
2022-11-20T12:13:22.153Z,31.65
2022-11-20T12:15:49.192Z,35.42
2022-11-20T12:18:21.480Z,35.00
2022-11-20T12:21:40.857Z,33.70
2022-11-20T12:24:13.115Z,33.90
2022-11-20T12:26:51.467Z,31.95
2022-11-20T12:29:33.010Z,34.65
2022-11-20T12:32:30.839Z,31.43
2022-11-20T12:35:31.444Z,35.55
2022-11-20T12:38:27.293Z,31.35
2022-11-20T12:41:05.949Z,31.10
2022-11-20T12:44:03.059Z,33.60
2022-11-20T12:46:38.453Z,34.97
2022-11-20T12:49:31.520Z,35.30
2022-11-20T12:52:21.540Z,33.50
2022-11-20T12:55:03.177Z,35.15
2022-11-20T12:57:45.305Z,39.58
2022-11-20T13:00:23.189Z,39.63
2022-11-20T13:03:14.534Z,37.55
2022-11-20T13:06:19.340Z,43.03
2022-11-20T13:08:54.192Z,49.72
2022-11-20T13:11:32.490Z,42.35
2022-11-20T13:14:01.869Z,38.70
2022-11-20T13:16:39.476Z,51.72
2022-11-20T13:19:10.820Z,38.33
2022-11-20T13:21:40.600Z,38.97
2022-11-20T13:24:31.205Z,41.05
2022-11-20T13:27:03.875Z,39.73
2022-11-20T13:29:31.013Z,41.03
2022-11-20T13:32:14.842Z,41.47
2022-11-20T13:34:56.566Z,35.50
2022-11-20T13:37:36.142Z,46.63
2022-11-20T13:40:08.304Z,40.17
2022-11-20T13:42:44.226Z,39.00
2022-11-20T13:45:26.251Z,38.17
2022-11-20T13:47:54.503Z,37.05
2022-11-20T13:50:42.109Z,36.65
2022-11-20T13:53:22.724Z,37.03
2022-11-20T13:56:30.560Z,36.00
2022-11-20T13:59:29.804Z,39.50
2022-11-20T14:01:56.475Z,36.03
2022-11-20T14:04:39.011Z,33.75
2022-11-20T14:07:07.426Z,38.50
2022-11-20T14:09:35.166Z,40.75
2022-11-20T14:12:03.522Z,34.95
2022-11-20T14:14:31.962Z,36.92
2022-11-20T14:17:34.970Z,36.35
2022-11-20T14:20:07.770Z,36.47
2022-11-20T14:22:34.206Z,35.83
2022-11-20T14:25:18.009Z,39.45
2022-11-20T14:27:48.816Z,39.60
2022-11-20T14:30:18.332Z,36.92
2022-11-20T14:32:46.334Z,62.87
2022-11-20T14:35:35.308Z,41.60
2022-11-20T14:38:03.376Z,39.25
2022-11-20T14:40:31.102Z,40.90
2022-11-20T14:42:59.644Z,36.17
2022-11-20T14:45:27.156Z,40.07
2022-11-20T14:47:57.596Z,36.22
2022-11-20T14:50:29.128Z,37.05
2022-11-20T14:52:59.551Z,40.22
2022-11-20T14:55:38.178Z,32.45
2022-11-20T14:58:22.495Z,37.77
2022-11-20T15:01:15.377Z,42.95
2022-11-20T15:03:42.250Z,36.08
2022-11-20T15:06:12.383Z,37.42
2022-11-20T15:08:38.913Z,37.85
2022-11-20T15:11:19.063Z,34.13
2022-11-20T15:13:45.601Z,33.33
2022-11-20T15:16:20.583Z,39.42
2022-11-20T15:18:47.789Z,51.58
2022-11-20T15:21:20.485Z,35.40
2022-11-20T15:23:46.933Z,42.33
2022-11-20T15:26:19.851Z,34.65
2022-11-20T15:28:51.373Z,38.25
2022-11-20T15:31:21.000Z,38.85
2022-11-20T15:33:47.714Z,38.10
2022-11-20T15:36:14.327Z,41.93
2022-11-20T15:38:40.856Z,39.10
2022-11-20T15:41:08.020Z,44.70
2022-11-20T15:43:35.023Z,56.67
2022-11-20T15:46:04.552Z,55.95
2022-11-20T15:48:35.820Z,44.57
2022-11-20T15:51:11.283Z,48.42
2022-11-20T15:53:38.943Z,42.45
2022-11-20T15:56:05.802Z,42.03
2022-11-20T15:58:32.340Z,36.10
2022-11-20T16:00:59.160Z,35.93
2022-11-20T16:03:25.639Z,37.95
2022-11-20T16:05:52.060Z,37.58
2022-11-20T16:08:18.538Z,39.33
2022-11-20T16:10:45.012Z,37.08
2022-11-20T16:13:35.690Z,30.50
2022-11-20T16:16:09.006Z,33.53
2022-11-20T16:18:35.841Z,29.48
2022-11-20T16:21:03.260Z,32.33
2022-11-20T16:23:29.722Z,31.42
2022-11-20T16:25:56.284Z,30.80
2022-11-20T16:28:22.811Z,29.05
2022-11-20T16:30:49.240Z,31.60
2022-11-20T16:33:18.266Z,29.63
2022-11-20T16:35:45.235Z,33.90
2022-11-20T16:38:11.864Z,35.07
2022-11-20T16:40:38.367Z,28.67
2022-11-20T16:43:14.584Z,35.47
2022-11-20T16:45:43.471Z,28.33
2022-11-20T16:48:14.631Z,29.10
2022-11-20T16:50:50.103Z,32.30
2022-11-20T16:53:18.464Z,31.35
2022-11-20T16:55:45.389Z,27.48
2022-11-20T16:58:12.674Z,53.85
2022-11-20T17:00:46.910Z,33.33
2022-11-20T17:03:18.045Z,28.67
2022-11-20T17:05:44.497Z,27.08
2022-11-20T17:08:10.942Z,29.67
2022-11-20T17:10:37.395Z,25.80
2022-11-20T17:13:03.870Z,26.42
2022-11-20T17:15:31.497Z,27.80
2022-11-20T17:17:57.993Z,24.60
2022-11-20T17:20:24.616Z,25.90
2022-11-20T17:22:51.040Z,24.75
2022-11-20T17:25:17.498Z,27.63
2022-11-20T17:27:43.962Z,23.67
2022-11-20T17:30:10.576Z,25.75
2022-11-20T17:32:37.033Z,24.88
2022-11-20T17:35:04.123Z,23.95
2022-11-20T17:37:30.650Z,27.60
2022-11-20T17:39:57.156Z,23.90
2022-11-20T17:42:29.807Z,27.83
2022-11-20T17:44:58.905Z,26.02
2022-11-20T17:47:25.967Z,25.98
2022-11-20T17:49:53.588Z,23.50
2022-11-20T17:52:20.144Z,28.10
2022-11-20T17:54:46.632Z,47.53
2022-11-20T17:57:31.702Z,43.97
2022-11-20T17:59:58.201Z,28.33
2022-11-20T18:02:25.037Z,33.13
2022-11-20T18:04:51.540Z,63.90
2022-11-20T18:07:18.022Z,53.38
2022-11-20T18:09:44.774Z,35.60
2022-11-20T18:12:11.227Z,31.63
2022-11-20T18:14:37.712Z,33.42
2022-11-20T18:17:07.316Z,39.67
2022-11-20T18:19:41.185Z,41.67
2022-11-20T18:22:16.567Z,40.75
2022-11-20T18:24:43.267Z,44.22
2022-11-20T18:27:15.963Z,35.90
2022-11-20T18:29:42.611Z,33.00
2022-11-20T18:32:09.045Z,33.05
2022-11-20T18:34:35.497Z,37.05
2022-11-20T18:37:02.027Z,38.38
2022-11-20T18:39:28.589Z,38.17
2022-11-20T18:42:13.457Z,37.13
2022-11-20T18:44:51.915Z,36.67
2022-11-20T18:47:36.036Z,35.25
2022-11-20T18:50:04.902Z,35.33
2022-11-20T18:52:40.055Z,45.72
2022-11-20T18:55:07.355Z,34.17
2022-11-20T18:57:34.311Z,33.67
2022-11-20T19:00:06.419Z,35.58
2022-11-20T19:02:41.063Z,36.75
2022-11-20T19:05:10.189Z,43.50
2022-11-20T19:07:36.891Z,38.83
2022-11-20T19:10:04.555Z,34.83
2022-11-20T19:12:31.268Z,34.47
2022-11-20T19:14:57.952Z,38.42
2022-11-20T19:17:24.524Z,39.42
2022-11-20T19:19:51.113Z,31.60
2022-11-20T19:22:17.660Z,58.53
2022-11-20T19:24:44.073Z,56.38
2022-11-20T19:27:10.547Z,45.88
2022-11-20T19:29:37.004Z,38.65
2022-11-20T19:32:04.525Z,51.93
2022-11-20T19:34:31.077Z,44.20
2022-11-20T19:36:57.549Z,47.22
2022-11-20T19:39:24.237Z,42.95
2022-11-20T19:41:50.918Z,45.00
2022-11-20T19:44:17.880Z,38.03
2022-11-20T19:46:44.833Z,37.70
2022-11-20T19:49:13.254Z,39.42
2022-11-20T19:51:45.569Z,46.70
2022-11-20T19:54:12.127Z,41.42
2022-11-20T19:56:38.576Z,41.93
2022-11-20T19:59:05.622Z,39.92
2022-11-20T20:01:32.559Z,40.03
2022-11-20T20:04:05.228Z,45.30
2022-11-20T20:06:34.561Z,38.08
2022-11-20T20:09:12.704Z,45.07
2022-11-20T20:11:40.385Z,41.83
2022-11-20T20:14:10.175Z,39.65
2022-11-20T20:16:36.731Z,36.55
2022-11-20T20:19:04.743Z,34.63
2022-11-20T20:21:33.280Z,38.73
2022-11-20T20:24:00.116Z,34.40
2022-11-20T20:26:29.396Z,37.70
2022-11-20T20:28:56.237Z,35.42
2022-11-20T20:31:25.271Z,38.53
2022-11-20T20:33:52.304Z,36.07
2022-11-20T20:36:20.594Z,34.03
2022-11-20T20:38:47.883Z,33.78
2022-11-20T20:41:18.366Z,33.33
2022-11-20T20:44:03.277Z,33.03
2022-11-20T20:46:29.760Z,36.30
2022-11-20T20:48:56.276Z,34.72
2022-11-20T20:51:23.790Z,36.97
2022-11-20T20:53:50.744Z,36.50
2022-11-20T20:56:18.256Z,34.35
2022-11-20T20:58:44.700Z,36.53
2022-11-20T21:01:16.728Z,37.03
2022-11-20T21:03:43.540Z,37.13
2022-11-20T21:06:11.305Z,35.85
2022-11-20T21:08:40.729Z,39.63
2022-11-20T21:11:13.434Z,36.87
2022-11-20T21:13:42.890Z,36.42
2022-11-20T21:16:10.082Z,33.60
2022-11-20T21:18:36.592Z,37.28
2022-11-20T21:21:26.638Z,35.05
2022-11-20T21:23:53.550Z,34.13
2022-11-20T21:26:21.022Z,36.17
2022-11-20T21:28:47.788Z,34.28
2022-11-20T21:31:16.923Z,35.67
2022-11-20T21:33:47.501Z,34.00
2022-11-20T21:36:16.604Z,29.73
2022-11-20T21:38:44.435Z,31.45
2022-11-20T21:41:12.250Z,31.88
2022-11-20T21:43:39.068Z,32.80
2022-11-20T21:46:11.310Z,34.58
2022-11-20T21:48:39.862Z,32.93
2022-11-20T21:51:08.561Z,33.75
2022-11-20T21:53:35.714Z,38.67
2022-11-20T21:56:04.228Z,35.70
2022-11-20T21:58:31.176Z,33.13
2022-11-20T22:00:58.164Z,33.97
2022-11-20T22:03:24.665Z,34.20
2022-11-20T22:05:58.588Z,34.05
2022-11-20T22:08:26.360Z,36.60
2022-11-20T22:10:57.376Z,39.85
2022-11-20T22:13:43.952Z,35.40
2022-11-20T22:16:10.609Z,34.20
2022-11-20T22:18:41.396Z,34.78
2022-11-20T22:21:07.960Z,34.97
2022-11-20T22:23:35.348Z,36.50
2022-11-20T22:26:13.019Z,40.13
2022-11-20T22:28:40.416Z,34.60
2022-11-20T22:31:09.634Z,33.97
2022-11-20T22:33:37.958Z,35.05
2022-11-20T22:36:16.494Z,38.30
2022-11-20T22:38:43.626Z,43.07
2022-11-20T22:41:21.416Z,38.58
2022-11-20T22:43:48.650Z,37.28
2022-11-20T22:46:17.101Z,41.15
2022-11-20T22:48:49.248Z,37.40
2022-11-20T22:51:17.022Z,33.93
2022-11-20T22:53:44.055Z,37.00
2022-11-20T22:56:12.570Z,33.13
2022-11-20T22:58:41.110Z,32.22
2022-11-20T23:01:35.001Z,40.28
2022-11-20T23:04:03.772Z,33.47
2022-11-20T23:06:34.239Z,40.90
2022-11-20T23:09:01.690Z,38.05
2022-11-20T23:11:30.066Z,38.72
2022-11-20T23:14:04.928Z,32.38
2022-11-20T23:16:32.513Z,40.13
2022-11-20T23:19:10.630Z,38.88
2022-11-20T23:21:39.392Z,36.38
2022-11-20T23:24:06.589Z,41.15
2022-11-20T23:26:36.407Z,41.72
2022-11-20T23:29:04.150Z,40.83
2022-11-20T23:31:34.983Z,38.90
2022-11-20T23:34:01.459Z,36.58
2022-11-20T23:36:27.995Z,38.00
2022-11-20T23:38:54.446Z,42.72
2022-11-20T23:41:20.923Z,44.23
2022-11-20T23:43:47.451Z,43.25
2022-11-20T23:46:16.807Z,43.42
2022-11-20T23:48:45.086Z,46.35
2022-11-20T23:51:11.994Z,44.92
2022-11-20T23:53:38.600Z,47.60
2022-11-20T23:56:06.140Z,48.83
2022-11-20T23:58:37.848Z,48.72
